This is the latest recevied weather packets stored in our database for station/object KG7BDA. If no packets are shown the sender has not sent any weather packets the latest 10 day(s).
| Time | Temp. | Humidity | Pressure | Rain* | Wind** | Luminosity | Snow |
|---|---|---|---|---|---|---|---|
| 1777798995 | 12.78° C | 49% | 1014.3 hPa | 0 mm | - | - | - |
| 1777798635 | 12.78° C | 50% | 1014.4 hPa | 0 mm | - | - | - |
| 1777798275 | 12.78° C | 52% | 1014.4 hPa | 0 mm | - | - | - |
| 1777797914 | 12.78° C | 50% | 1014.4 hPa | 0 mm | - | - | - |
| 1777797555 | 12.78° C | 50% | 1014.4 hPa | 0 mm | - | - | - |
| 1777797195 | 12.22° C | 51% | 1014.4 hPa | 0 mm | - | - | - |
| 1777796835 | 12.78° C | 48% | 1014.5 hPa | 0 mm | - | - | - |
| 1777796475 | 13.33° C | 47% | 1014.5 hPa | 0 mm | - | - | - |
| 1777796114 | 13.89° C | 46% | 1014.6 hPa | 0 mm | - | - | - |
| 1777795755 | 13.89° C | 46% | 1014.6 hPa | 0 mm | - | - | - |
| 1777795395 | 13.89° C | 45% | 1014.6 hPa | 0 mm | - | - | - |
| 1777795034 | 13.89° C | 45% | 1014.6 hPa | 0 mm | - | - | - |
| 1777794674 | 14.44° C | 45% | 1014.7 hPa | 0 mm | - | - | - |
| 1777794315 | 14.44° C | 45% | 1014.6 hPa | 0 mm | - | - | - |
| 1777793955 | 13.89° C | 45% | 1014.7 hPa | 0 mm | - | - | - |
| 1777793594 | 14.44° C | 44% | 1014.7 hPa | 0 mm | - | - | - |
| 1777793235 | 14.44° C | 44% | 1014.7 hPa | 0 mm | - | - | - |
| 1777792873 | 15° C | 43% | 1014.6 hPa | 0 mm | - | - | - |
| 1777792515 | 14.44° C | 43% | 1014.6 hPa | 0 mm | - | - | - |
| 1777792155 | 14.44° C | 44% | 1014.6 hPa | 0 mm | - | - | - |
| 1777791794 | 13.89° C | 45% | 1014.7 hPa | 0 mm | - | - | - |
| 1777791434 | 13.89° C | 45% | 1014.7 hPa | 0 mm | - | - | - |
| 1777791075 | 13.89° C | 45% | 1014.6 hPa | 0 mm | - | - | - |
| 1777790714 | 13.89° C | 46% | 1014.6 hPa | 0 mm | - | - | - |
| 1777790355 | 13.89° C | 46% | 1014.6 hPa | 0 mm | - | - | - |
* Rain latest hour (hover to see other rain measurements)
** Current wind speed in m/s (hover to see current wind gust speed)